createdAt,value
2022-09-05T00:01:43.413Z,8.09
2022-09-05T00:04:38.199Z,8.03
2022-09-05T00:07:59.447Z,7.97
2022-09-05T00:11:40.917Z,7.95
2022-09-05T00:14:16.610Z,7.89
2022-09-05T00:17:03.462Z,7.83
2022-09-05T00:24:29.590Z,7.74
2022-09-05T00:24:37.273Z,7.78
2022-09-05T00:26:28.827Z,7.69
2022-09-05T00:29:07.509Z,7.64
2022-09-05T00:31:55.521Z,7.62
2022-09-05T00:34:48.519Z,7.59
2022-09-05T00:37:32.266Z,7.56
2022-09-05T00:40:18.188Z,7.55
2022-09-05T00:42:49.740Z,7.50
2022-09-05T00:45:37.907Z,7.49
2022-09-05T00:48:28.903Z,7.42
2022-09-05T00:51:34.884Z,7.36
2022-09-05T00:54:02.035Z,7.36
2022-09-05T00:57:00.979Z,7.33
2022-09-05T00:59:50.847Z,7.31
2022-09-05T01:02:33.347Z,7.32
2022-09-05T01:05:10.257Z,7.30
2022-09-05T01:07:46.835Z,7.29
2022-09-05T01:10:29.211Z,7.27
2022-09-05T01:13:05.494Z,7.24
2022-09-05T01:15:38.123Z,7.22
2022-09-05T01:18:32.786Z,7.20
2022-09-05T01:21:12.820Z,7.17
2022-09-05T01:23:58.369Z,7.14
2022-09-05T01:27:03.857Z,7.11
2022-09-05T01:29:40.861Z,7.09
2022-09-05T01:32:20.070Z,7.06
2022-09-05T01:35:25.822Z,7.02
2022-09-05T01:38:03.172Z,7.01
2022-09-05T01:41:18.849Z,7.00
2022-09-05T01:44:23.598Z,6.97
2022-09-05T01:47:30.741Z,6.94
2022-09-05T01:50:00.882Z,6.98
2022-09-05T01:52:34.129Z,6.98
2022-09-05T01:55:07.094Z,6.97
2022-09-05T01:57:46.017Z,6.95
2022-09-05T02:00:13.139Z,6.93
2022-09-05T02:02:50.844Z,6.87
2022-09-05T02:05:56.103Z,6.82
2022-09-05T02:08:47.793Z,6.81
2022-09-05T02:11:16.457Z,6.83
2022-09-05T02:14:38.396Z,6.78
2022-09-05T02:17:49.525Z,6.78
2022-09-05T02:20:13.548Z,6.79
2022-09-05T02:22:56.648Z,6.75
2022-09-05T02:26:01.509Z,6.72
2022-09-05T02:28:54.249Z,6.71
2022-09-05T02:31:27.588Z,6.69
2022-09-05T02:34:02.629Z,6.65
2022-09-05T02:36:35.219Z,6.61
2022-09-05T02:45:00.803Z,6.58
2022-09-05T02:45:11.750Z,6.62
2022-09-05T02:45:43.836Z,6.61
2022-09-05T02:48:22.082Z,6.58
2022-09-05T02:57:23.713Z,6.55
2022-09-05T02:57:36.179Z,6.49
2022-09-05T02:57:38.174Z,6.51
2022-09-05T03:00:27.131Z,6.46
2022-09-05T03:03:25.099Z,6.43
2022-09-05T03:06:09.060Z,6.37
2022-09-05T03:09:16.856Z,6.35
2022-09-05T03:12:29.171Z,6.37
2022-09-05T03:15:23.633Z,6.35
2022-09-05T03:18:21.722Z,6.36
2022-09-05T03:21:26.995Z,6.34
2022-09-05T03:24:10.173Z,6.33
2022-09-05T03:27:29.638Z,6.31
2022-09-05T03:30:15.592Z,6.26
2022-09-05T03:32:43.032Z,6.24
2022-09-05T03:35:47.249Z,6.21
2022-09-05T03:38:51.406Z,6.21
2022-09-05T03:41:47.496Z,6.21
2022-09-05T03:44:36.590Z,6.20
2022-09-05T03:47:13.856Z,6.20
2022-09-05T03:53:29.443Z,6.21
2022-09-05T03:57:10.811Z,6.25
2022-09-05T03:57:14.133Z,6.29
2022-09-05T03:58:59.084Z,6.33
2022-09-05T04:05:40.345Z,6.31
2022-09-05T04:08:11.592Z,6.29
2022-09-05T04:08:18.073Z,6.31
2022-09-05T04:10:40.955Z,6.31
2022-09-05T04:13:08.921Z,6.33
2022-09-05T04:15:41.109Z,6.32
2022-09-05T04:18:32.706Z,6.31
2022-09-05T04:21:07.011Z,6.35
2022-09-05T04:24:11.157Z,6.37
2022-09-05T04:26:45.133Z,6.40
2022-09-05T04:29:24.290Z,6.38
2022-09-05T04:32:26.124Z,6.35
2022-09-05T04:35:01.839Z,6.34
2022-09-05T04:37:47.616Z,6.38
2022-09-05T04:40:38.528Z,6.46
2022-09-05T04:43:14.208Z,6.46
2022-09-05T04:46:03.325Z,6.50
2022-09-05T04:48:55.860Z,6.69
2022-09-05T04:51:34.760Z,6.73
2022-09-05T04:54:39.694Z,6.71
2022-09-05T04:57:43.896Z,6.73
2022-09-05T05:06:00.514Z,6.74
2022-09-05T05:06:09.767Z,6.73
2022-09-05T05:06:29.170Z,6.75
2022-09-05T05:09:12.875Z,6.80
2022-09-05T05:18:03.433Z,6.82
2022-09-05T05:18:06.875Z,6.90
2022-09-05T05:18:41.110Z,7.01
2022-09-05T05:21:17.488Z,7.13
2022-09-05T05:23:48.870Z,7.29
2022-09-05T05:26:26.208Z,7.49
2022-09-05T05:29:23.991Z,7.58
2022-09-05T05:31:57.035Z,7.75
2022-09-05T05:34:34.563Z,7.93
2022-09-05T05:37:08.612Z,7.98
2022-09-05T05:39:40.020Z,8.08
2022-09-05T05:42:20.558Z,8.26
2022-09-05T05:44:54.753Z,8.52
2022-09-05T05:47:32.207Z,8.58
2022-09-05T05:50:37.351Z,8.74
2022-09-05T05:53:13.212Z,9.01
2022-09-05T05:56:19.790Z,9.23
2022-09-05T05:59:00.627Z,9.38
2022-09-05T06:01:52.319Z,9.40
2022-09-05T06:04:47.572Z,9.40
2022-09-05T06:09:28.347Z,9.65
2022-09-05T06:14:51.252Z,9.90
2022-09-05T06:14:57.885Z,10.09
2022-09-05T06:17:08.297Z,9.91
2022-09-05T06:22:07.205Z,10.11
2022-09-05T06:23:07.361Z,10.43
2022-09-05T06:26:01.815Z,10.54
2022-09-05T06:28:47.189Z,10.62
2022-09-05T06:31:30.894Z,10.69
2022-09-05T06:34:33.118Z,10.72
2022-09-05T06:37:24.835Z,10.68
2022-09-05T06:40:17.795Z,10.68
2022-09-05T06:43:13.841Z,10.70
2022-09-05T06:46:16.161Z,10.64
2022-09-05T06:49:37.415Z,10.64
2022-09-05T06:52:29.750Z,10.67
2022-09-05T06:55:12.336Z,10.79
2022-09-05T06:57:58.001Z,11.00
2022-09-05T07:00:38.156Z,11.24
2022-09-05T07:03:42.816Z,11.53
2022-09-05T07:07:01.922Z,11.77
2022-09-05T07:09:54.524Z,12.03
2022-09-05T07:12:45.185Z,12.29
2022-09-05T07:15:48.797Z,12.50
2022-09-05T07:18:53.216Z,12.68
2022-09-05T07:21:44.856Z,12.78
2022-09-05T07:24:34.643Z,12.87
2022-09-05T07:27:09.000Z,13.03
2022-09-05T07:29:58.928Z,13.12
2022-09-05T07:32:30.177Z,13.23
2022-09-05T07:34:58.386Z,13.38
2022-09-05T07:37:41.071Z,13.46
2022-09-05T07:40:26.981Z,13.61
2022-09-05T07:43:10.621Z,13.57
2022-09-05T07:45:55.704Z,13.64
2022-09-05T07:48:35.025Z,13.59
2022-09-05T07:56:46.070Z,13.71
2022-09-05T07:57:10.465Z,13.80
2022-09-05T07:59:41.419Z,13.81
2022-09-05T08:02:10.867Z,13.78
2022-09-05T08:04:39.682Z,13.67
2022-09-05T08:07:48.689Z,13.84
2022-09-05T08:10:15.644Z,14.16
2022-09-05T08:13:23.468Z,14.31
2022-09-05T08:16:10.187Z,14.42
2022-09-05T08:19:22.083Z,14.67
2022-09-05T08:21:50.695Z,14.70
2022-09-05T08:24:36.691Z,14.61
2022-09-05T08:27:17.057Z,14.92
2022-09-05T08:29:47.016Z,15.08
2022-09-05T08:32:35.239Z,15.15
2022-09-05T08:35:16.781Z,15.04
2022-09-05T08:37:44.458Z,15.17
2022-09-05T08:40:21.851Z,15.42
2022-09-05T08:43:47.169Z,15.40
2022-09-05T08:46:46.559Z,15.53
2022-09-05T08:49:36.440Z,15.66
2022-09-05T08:52:20.685Z,15.27
2022-09-05T08:55:02.831Z,15.34
2022-09-05T08:57:55.509Z,15.59
2022-09-05T09:00:24.872Z,15.91
2022-09-05T09:03:11.890Z,16.23
2022-09-05T09:06:14.334Z,16.46
2022-09-05T09:09:09.623Z,16.52
2022-09-05T09:11:44.147Z,16.23
2022-09-05T09:14:37.335Z,16.06
2022-09-05T09:17:39.647Z,16.19
2022-09-05T09:20:25.026Z,16.25
2022-09-05T09:22:57.487Z,16.40
2022-09-05T09:25:42.716Z,16.49
2022-09-05T09:28:48.711Z,16.55
2022-09-05T09:31:17.802Z,16.48
2022-09-05T09:33:58.095Z,16.65
2022-09-05T09:36:53.456Z,16.59
2022-09-05T09:39:48.272Z,16.17
2022-09-05T09:42:49.344Z,16.14
2022-09-05T09:45:29.517Z,15.95
2022-09-05T09:48:27.586Z,15.73
2022-09-05T09:51:18.337Z,15.71
2022-09-05T09:54:09.986Z,15.70
2022-09-05T09:56:58.759Z,15.60
2022-09-05T09:59:54.077Z,15.48
2022-09-05T10:07:17.023Z,15.50
2022-09-05T10:10:45.620Z,15.70
2022-09-05T10:10:52.399Z,15.74
2022-09-05T10:12:15.652Z,15.87
2022-09-05T10:15:31.845Z,16.15
2022-09-05T10:18:10.136Z,16.20
2022-09-05T10:21:16.743Z,16.61
2022-09-05T10:23:54.946Z,16.87
2022-09-05T10:26:43.306Z,17.03
2022-09-05T10:29:47.645Z,17.17
2022-09-05T10:35:08.137Z,17.41
2022-09-05T10:35:23.594Z,16.91
2022-09-05T10:38:14.996Z,16.81
2022-09-05T10:41:20.095Z,16.70
2022-09-05T10:43:32.565Z,17.14
2022-09-05T10:46:39.874Z,17.55
2022-09-05T10:49:09.466Z,17.97
2022-09-05T10:52:18.823Z,18.03
2022-09-05T10:54:46.505Z,17.94
2022-09-05T10:57:38.411Z,18.04
2022-09-05T11:02:24.099Z,17.49
2022-09-05T11:03:55.513Z,17.33
2022-09-05T11:06:49.737Z,17.55
2022-09-05T11:09:45.838Z,18.10
2022-09-05T11:12:37.596Z,18.34
2022-09-05T11:15:33.018Z,18.42
2022-09-05T11:18:18.614Z,18.23
2022-09-05T11:21:14.626Z,18.33
2022-09-05T11:23:51.633Z,18.07
2022-09-05T11:26:58.245Z,17.99
2022-09-05T11:29:50.356Z,17.83
2022-09-05T11:39:58.952Z,17.35
2022-09-05T11:40:02.116Z,17.01
2022-09-05T11:40:09.608Z,17.32
2022-09-05T11:41:47.705Z,17.35
2022-09-05T11:44:34.892Z,17.44
2022-09-05T11:47:40.929Z,17.48
2022-09-05T11:50:38.306Z,17.82
2022-09-05T11:53:23.727Z,17.83
2022-09-05T11:56:03.713Z,16.91
2022-09-05T11:59:06.896Z,16.82
2022-09-05T12:01:57.678Z,16.93
2022-09-05T12:05:48.336Z,17.02
2022-09-05T12:08:21.310Z,17.03
2022-09-05T12:11:05.522Z,16.81
2022-09-05T12:14:13.705Z,17.10
2022-09-05T12:16:59.308Z,17.03
2022-09-05T12:19:47.756Z,17.07
2022-09-05T12:22:37.635Z,17.26
2022-09-05T12:27:36.180Z,17.44
2022-09-05T12:29:27.546Z,17.65
2022-09-05T12:33:16.185Z,17.73
2022-09-05T12:36:11.941Z,17.15
2022-09-05T12:40:35.575Z,17.48
2022-09-05T12:41:38.837Z,17.50
2022-09-05T12:44:00.735Z,17.70
2022-09-05T12:46:35.735Z,17.40
2022-09-05T12:49:10.977Z,17.44
2022-09-05T12:51:47.723Z,17.57
2022-09-05T12:54:39.777Z,16.94
2022-09-05T13:03:00.954Z,16.99
2022-09-05T13:03:02.854Z,17.09
2022-09-05T13:03:37.980Z,17.21
2022-09-05T13:05:58.109Z,17.00
2022-09-05T13:08:31.547Z,16.83
2022-09-05T13:14:47.802Z,17.13
2022-09-05T13:15:01.647Z,16.83
2022-09-05T13:16:46.317Z,16.94
2022-09-05T13:19:30.830Z,16.62
2022-09-05T13:21:58.836Z,16.87
2022-09-05T13:24:34.347Z,16.58
2022-09-05T13:27:13.816Z,16.81
2022-09-05T13:30:46.896Z,17.00
2022-09-05T13:37:58.986Z,17.03
2022-09-05T13:38:15.619Z,17.04
2022-09-05T13:38:48.641Z,16.89
2022-09-05T13:41:30.835Z,16.66
2022-09-05T13:44:25.352Z,16.60
2022-09-05T13:46:58.725Z,16.44
2022-09-05T13:49:37.346Z,16.59
2022-09-05T13:52:28.047Z,16.46
2022-09-05T13:55:13.675Z,16.22
2022-09-05T13:58:10.708Z,16.17
2022-09-05T14:00:40.479Z,16.44
2022-09-05T14:03:38.605Z,16.57
2022-09-05T14:06:46.125Z,16.57
2022-09-05T14:09:38.562Z,16.27
2022-09-05T14:12:11.639Z,16.41
2022-09-05T14:15:25.158Z,16.29
2022-09-05T14:18:21.058Z,16.19
2022-09-05T14:21:15.998Z,16.35
2022-09-05T14:24:04.729Z,16.21
2022-09-05T14:26:38.116Z,16.05
2022-09-05T14:29:36.407Z,16.01
2022-09-05T14:37:39.708Z,16.02
2022-09-05T14:37:49.196Z,15.94
2022-09-05T14:38:22.022Z,15.92
2022-09-05T14:41:15.182Z,15.94
2022-09-05T14:44:10.168Z,15.81
2022-09-05T14:47:35.424Z,15.75
2022-09-05T14:50:07.552Z,15.60
2022-09-05T14:52:43.632Z,15.61
2022-09-05T14:55:20.474Z,15.55
2022-09-05T15:02:49.360Z,15.63
2022-09-05T15:02:53.941Z,15.49
2022-09-05T15:06:39.055Z,15.45
2022-09-05T15:12:15.016Z,15.33
2022-09-05T15:12:27.062Z,15.35
2022-09-05T15:14:56.098Z,15.38
2022-09-05T15:17:26.248Z,15.49
2022-09-05T15:20:05.837Z,15.39
2022-09-05T15:22:43.167Z,15.36
2022-09-05T15:25:25.149Z,15.08
2022-09-05T15:27:52.657Z,14.99
2022-09-05T15:30:27.565Z,14.99
2022-09-05T15:33:25.866Z,14.94
2022-09-05T15:35:53.595Z,15.01
2022-09-05T15:38:22.871Z,14.93
2022-09-05T15:41:10.265Z,14.96
2022-09-05T15:43:40.375Z,14.93
2022-09-05T15:46:07.728Z,14.96
2022-09-05T15:48:35.549Z,14.92
2022-09-05T15:51:11.645Z,14.81
2022-09-05T15:53:43.216Z,14.74
2022-09-05T15:56:10.220Z,14.78
2022-09-05T15:58:53.367Z,14.68
2022-09-05T16:01:58.631Z,14.71
2022-09-05T16:08:39.772Z,14.63
2022-09-05T16:10:38.138Z,14.61
2022-09-05T16:10:49.867Z,14.59
2022-09-05T16:12:56.185Z,14.51
2022-09-05T16:21:51.339Z,14.39
2022-09-05T16:23:13.424Z,14.29
2022-09-05T16:23:28.519Z,14.19
2022-09-05T16:24:08.422Z,14.16
2022-09-05T16:26:47.002Z,14.14
2022-09-05T16:29:26.205Z,14.08
2022-09-05T16:32:11.284Z,13.98
2022-09-05T16:34:58.604Z,14.01
2022-09-05T16:37:34.650Z,13.92
2022-09-05T16:40:24.549Z,13.88
2022-09-05T16:42:54.389Z,13.78
2022-09-05T16:45:30.832Z,13.77
2022-09-05T16:48:22.902Z,13.68
2022-09-05T16:51:08.660Z,13.67
2022-09-05T16:53:59.144Z,13.60
2022-09-05T16:56:35.887Z,13.52
2022-09-05T16:59:09.724Z,13.46
2022-09-05T17:02:05.518Z,13.44
2022-09-05T17:05:04.283Z,13.40
2022-09-05T17:08:10.312Z,13.36
2022-09-05T17:10:57.728Z,13.32
2022-09-05T17:13:57.731Z,13.29
2022-09-05T17:16:37.442Z,13.22
2022-09-05T17:19:04.582Z,13.14
2022-09-05T17:23:00.374Z,13.04
2022-09-05T17:29:24.927Z,13.05
2022-09-05T17:29:36.338Z,13.01
2022-09-05T17:33:44.705Z,12.94
2022-09-05T17:36:19.553Z,12.86
2022-09-05T17:39:31.739Z,12.81
2022-09-05T17:42:14.691Z,12.76
2022-09-05T17:44:53.213Z,12.67
2022-09-05T17:47:36.286Z,12.58
2022-09-05T17:50:15.305Z,12.50
2022-09-05T17:53:26.487Z,12.36
2022-09-05T17:55:52.409Z,12.29
2022-09-05T17:58:24.535Z,12.19
2022-09-05T18:00:51.669Z,12.13
2022-09-05T18:03:38.839Z,11.96
2022-09-05T18:06:18.664Z,11.88
2022-09-05T18:08:45.598Z,11.79
2022-09-05T18:11:33.632Z,11.69
2022-09-05T18:14:25.080Z,11.63
2022-09-05T18:17:35.549Z,11.54
2022-09-05T18:19:46.210Z,11.45
2022-09-05T18:22:33.451Z,11.36
2022-09-05T18:25:30.547Z,11.29
2022-09-05T18:28:31.591Z,11.23
2022-09-05T18:31:41.839Z,11.20
2022-09-05T18:34:15.628Z,11.21
2022-09-05T18:36:45.342Z,11.20
2022-09-05T18:39:29.260Z,11.16
2022-09-05T18:42:33.464Z,11.18
2022-09-05T18:45:18.416Z,11.19
2022-09-05T18:47:59.407Z,11.19
2022-09-05T18:50:32.251Z,11.17
2022-09-05T18:53:08.976Z,11.16
2022-09-05T18:56:13.637Z,11.18
2022-09-05T18:58:51.740Z,11.13
2022-09-05T19:01:38.319Z,11.11
2022-09-05T19:04:34.503Z,11.01
2022-09-05T19:07:07.994Z,10.94
2022-09-05T19:09:37.314Z,10.88
2022-09-05T19:12:31.995Z,10.80
2022-09-05T19:15:08.203Z,10.57
2022-09-05T19:17:39.708Z,10.50
2022-09-05T19:20:59.644Z,10.41
2022-09-05T19:23:43.649Z,10.35
2022-09-05T19:26:11.165Z,10.33
2022-09-05T19:36:48.760Z,10.25
2022-09-05T19:36:49.503Z,10.30
2022-09-05T19:37:14.799Z,10.20
2022-09-05T19:37:35.948Z,10.12
2022-09-05T19:43:37.716Z,10.05
2022-09-05T19:47:34.563Z,9.92
2022-09-05T19:47:35.917Z,9.98
2022-09-05T19:48:34.291Z,9.85
2022-09-05T19:51:17.552Z,9.77
2022-09-05T19:53:47.896Z,9.68
2022-09-05T19:56:24.712Z,9.63
2022-09-05T19:58:52.700Z,9.60
2022-09-05T20:01:23.359Z,9.57
2022-09-05T20:03:53.124Z,9.53
2022-09-05T20:06:29.042Z,9.46
2022-09-05T20:09:14.717Z,9.42
2022-09-05T20:11:50.078Z,9.40
2022-09-05T20:14:30.565Z,9.37
2022-09-05T20:17:26.169Z,9.32
2022-09-05T20:20:05.729Z,9.29
2022-09-05T20:22:47.518Z,9.24
2022-09-05T20:25:36.786Z,9.19
2022-09-05T20:28:35.909Z,9.17
2022-09-05T20:31:08.412Z,9.14
2022-09-05T20:33:54.418Z,9.09
2022-09-05T20:43:08.061Z,9.08
2022-09-05T20:43:21.594Z,9.03
2022-09-05T20:43:22.290Z,9.06
2022-09-05T20:45:44.138Z,8.96
2022-09-05T20:54:08.497Z,8.90
2022-09-05T20:54:16.613Z,8.80
2022-09-05T20:54:28.318Z,8.84
2022-09-05T20:56:54.880Z,8.76
2022-09-05T20:59:35.748Z,8.73
2022-09-05T21:02:20.730Z,8.67
2022-09-05T21:05:21.366Z,8.65
2022-09-05T21:08:01.142Z,8.62
2022-09-05T21:10:56.681Z,8.52
2022-09-05T21:13:27.140Z,8.43
2022-09-05T21:15:55.681Z,8.36
2022-09-05T21:18:32.983Z,8.28
2022-09-05T21:21:14.576Z,8.25
2022-09-05T21:24:17.479Z,8.22
2022-09-05T21:26:49.838Z,8.17
2022-09-05T21:29:27.561Z,8.15
2022-09-05T21:32:00.838Z,8.11
2022-09-05T21:34:32.041Z,8.08
2022-09-05T21:37:07.124Z,8.08
2022-09-05T21:39:44.796Z,8.04
2022-09-05T21:44:40.835Z,8.03
2022-09-05T21:47:45.068Z,8.00
2022-09-05T21:48:03.750Z,7.97
2022-09-05T21:50:39.070Z,7.89
2022-09-05T21:54:22.448Z,7.98
2022-09-05T21:59:16.405Z,8.00
2022-09-05T21:59:27.217Z,7.95
2022-09-05T22:01:51.646Z,7.88
2022-09-05T22:04:22.186Z,7.79
2022-09-05T22:06:50.321Z,7.77
2022-09-05T22:09:22.115Z,7.74
2022-09-05T22:11:52.642Z,7.75
2022-09-05T22:14:21.792Z,7.75
2022-09-05T22:16:50.988Z,7.73
2022-09-05T22:19:23.060Z,7.71
2022-09-05T22:21:55.448Z,7.69
2022-09-05T22:24:23.408Z,7.70
2022-09-05T22:27:12.646Z,7.70
2022-09-05T22:29:40.339Z,7.70
2022-09-05T22:32:07.797Z,7.70
2022-09-05T22:34:34.736Z,7.68
2022-09-05T22:37:01.681Z,7.68
2022-09-05T22:39:36.511Z,7.65
2022-09-05T22:42:10.107Z,7.62
2022-09-05T22:44:39.292Z,7.60
2022-09-05T22:47:11.560Z,7.57
2022-09-05T22:49:38.488Z,7.60
2022-09-05T22:52:09.736Z,7.60
2022-09-05T22:54:36.779Z,7.64
2022-09-05T22:57:04.969Z,7.65
2022-09-05T22:59:32.023Z,7.67
2022-09-05T23:01:59.031Z,7.68
2022-09-05T23:04:26.208Z,7.68
2022-09-05T23:06:53.236Z,7.69
2022-09-05T23:09:20.555Z,7.73
2022-09-05T23:11:48.481Z,7.76
2022-09-05T23:14:15.397Z,7.78
2022-09-05T23:16:42.329Z,7.82
2022-09-05T23:19:09.329Z,7.87
2022-09-05T23:21:36.269Z,7.93
2022-09-05T23:24:03.367Z,7.96
2022-09-05T23:26:30.319Z,7.99
2022-09-05T23:28:57.272Z,8.04
2022-09-05T23:31:24.407Z,8.06
2022-09-05T23:33:51.999Z,8.07
2022-09-05T23:36:18.977Z,8.09
2022-09-05T23:38:45.867Z,8.07
2022-09-05T23:41:14.099Z,8.08
2022-09-05T23:43:41.709Z,8.07
2022-09-05T23:46:08.691Z,8.01
2022-09-05T23:48:35.833Z,7.96
2022-09-05T23:51:11.297Z,7.88
2022-09-05T23:53:38.708Z,7.84
2022-09-05T23:56:07.498Z,7.77
2022-09-05T23:58:35.724Z,7.71
